Terminal Aerodrome Forecast
Issued by NWS Medford, OR

Home | Current Version | Previous Version | Text Only | Print | Product List | Glossary On
Versions: 1 2 3 4 5 6 7 8 9 10 11 12
000
FTUS46 KMFR 282300
TAFMFR
TAF
KMFR 282321Z 2900/2924 30010KT P6SM SCT060 SCT100
     FM290400 VRB03KT P6SM FEW120
     FM292200 31007KT P6SM FEW060 SCT100=

USA.gov is the U.S. government's official web portal to all federal, state and local government web resources and services.